Aérodrome :
LOGIN :

S'inscrire | Disclaimer

   EN    FR    IT 

 










Légende :    VFR   VFR Marginal   IFR   IFR Intensif   IFR Très Intensif
Visi : 
Plafond : 
>= 8 km
>= 3000ft
5 à 8 km
1000 à 3000 ft
1500m à 5 km
500 à 1000 ft
800 à 1500m
200 à 500 ft
< 800m
< 200 ft
Symboles :   Orages  Brouillard  Fortes neiges  Fortes précipitations  Vent > 20 kt
SIGMETs :   Divers  Orages  Givrage  Turbulence  Onde Orograph.  Cendres Volcan.






- Altitude de l'aérodrome : 242 ft
- Code IATA : DUB


EIDW - Dublin

DERNIER METAR :
  • 101030Z VRB03KT 9000 FEW014 BKN080 17/10 Q1022 NOSIG

METARs EXPIRÉS :
  • 101000Z 10005KT 9000 FEW014 BKN080 16/10 Q1022 NOSIG
  • 100930Z 11005KT 080V140 9000 FEW013 BKN080 15/09 Q1022 NOSIG
  • 100900Z 11005KT 080V150 9000 FEW013 BKN080 14/10 Q1022 NOSIG
  • 100830Z 10005KT 9000 FEW012 BKN080 12/10 Q1022 NOSIG
  • 100800Z VRB03KT 7000 FEW012 BKN080 11/09 Q1022 NOSIG

TAF TAF EIDW
Valide du 10 à 06h jusqu'au 11 à 06h UTC


100500Z 1006/1106 11005KT 9999 FEW030
PROB30
TEMPO 1006/1007 4000 -SHRA BR
BECMG 1010/1012 VRB03KT
PROB30
TEMPO 1012/1019 -SHRA FEW018CB
BECMG 1023/1101 28006KT
PROB40
TEMPO 1100/1106 -SHRA BKN012
PROB30
TEMPO 1102/1106 3000 BR



MET'MAP, la Météo Aéronautique d'un coup d'oeil ! - Copyright ORBIFLY Décembre 2007 - Disclaimer

ORBIFLY MET'MAP TEAM :

Programmation & Développement : Alexandra Zaïnal
Sur une idée originale de : Baudouin d'Aumeries
Assistance à la programmation : Marc-Olivier Méhu
Soutien technique & logistique : Manuel Goepfert

Contact : metmap@orbifly.com




SOURCES & CREDITS :

   NOAA